Time;durP1;ratioP1;P1;durP2;ratioP2;P2;SDS_P1;SDS_P2;PMS_P1;PMS_P2;Temp;Humidity;BMP_temperature;BMP_pressure;BME280_temperature;BME280_humidity;BME280_pressure;Samples;Min_cycle;Max_cycle;Signal;HPM_P1;HPM_P2
2021/12/08 00:00:38;;;;;;;7.75;5.30;;;;;;;1.46;100.00;93888.25;5037985;28;20231;-81
2021/12/08 00:03:07;;;;;;;6.82;4.88;;;;;;;1.55;100.00;93885.88;5073028;28;20193;-81
2021/12/08 00:05:34;;;;;;;15.23;7.30;;;;;;;1.54;100.00;93891.97;5073303;28;20268;-81
2021/12/08 00:08:01;;;;;;;5.15;4.65;;;;;;;1.61;100.00;93902.75;5072763;28;20202;-81
2021/12/08 00:10:52;;;;;;;6.25;4.90;;;;;;;1.52;100.00;93908.53;5073420;28;20194;-81
2021/12/08 00:13:18;;;;;;;5.68;5.15;;;;;;;1.47;100.00;93905.41;5072960;28;20277;-81
2021/12/08 00:15:48;;;;;;;12.15;6.25;;;;;;;1.42;100.00;93907.44;5073021;28;20229;-82
2021/12/08 00:24:58;;;;;;;6.85;4.85;;;;;;;1.40;100.00;93917.06;5071937;28;20203;-81
2021/12/08 00:27:25;;;;;;;16.90;7.20;;;;;;;1.38;100.00;93918.91;5073202;28;20202;-81
2021/12/08 00:29:54;;;;;;;9.15;6.03;;;;;;;1.33;100.00;93915.81;5072779;28;20447;-81
2021/12/08 00:32:25;;;;;;;6.60;4.35;;;;;;;1.30;100.00;93921.19;5072702;28;20201;-81
2021/12/08 00:34:52;;;;;;;5.67;4.33;;;;;;;1.28;100.00;93915.28;5072844;28;20279;-81
2021/12/08 00:37:20;;;;;;;6.22;4.35;;;;;;;1.30;100.00;93922.00;5072673;28;20440;-81
2021/12/08 00:39:47;;;;;;;7.15;4.93;;;;;;;1.30;100.00;93921.19;5073213;28;20194;-81
2021/12/08 00:48:59;;;;;;;22.65;10.98;;;;;;;1.37;100.00;93936.19;5071518;28;20193;-81
2021/12/08 00:51:27;;;;;;;8.48;5.28;;;;;;;1.41;100.00;93936.81;5072912;28;20611;-81
2021/12/08 00:53:54;;;;;;;4.82;4.43;;;;;;;1.39;100.00;93936.91;5072702;28;20313;-81
2021/12/08 00:56:21;;;;;;;3.50;3.20;;;;;;;1.43;100.00;93938.38;5072372;28;20217;-81
2021/12/08 00:58:47;;;;;;;3.92;3.60;;;;;;;1.44;100.00;93942.59;5072763;28;20198;-81
2021/12/08 01:01:15;;;;;;;4.23;3.53;;;;;;;1.35;100.00;93925.13;5073005;28;20233;-81
2021/12/08 01:03:44;;;;;;;5.00;4.60;;;;;;;1.32;100.00;93942.59;5072754;28;20471;-81
2021/12/08 01:06:14;;;;;;;5.28;4.32;;;;;;;1.26;100.00;93938.63;5072408;28;20452;-81
2021/12/08 01:08:41;;;;;;;4.72;4.20;;;;;;;1.28;100.00;93938.53;5072783;28;20206;-81
2021/12/08 01:11:14;;;;;;;4.50;4.10;;;;;;;1.27;100.00;93937.72;5073746;28;20189;-81
2021/12/08 01:13:41;;;;;;;6.80;5.50;;;;;;;1.27;100.00;93940.28;5076243;28;20208;-81
2021/12/08 01:16:08;;;;;;;5.20;4.70;;;;;;;1.38;100.00;93942.19;5075824;28;20313;-81
2021/12/08 01:18:35;;;;;;;5.17;4.43;;;;;;;1.39;100.00;93943.84;5075827;28;20425;-81
2021/12/08 01:21:06;;;;;;;6.03;4.30;;;;;;;1.35;100.00;93944.97;5075821;28;20810;-81
2021/12/08 01:23:34;;;;;;;5.53;4.97;;;;;;;1.32;100.00;93947.75;5075781;28;20440;-81
2021/12/08 01:26:09;;;;;;;5.80;4.63;;;;;;;1.33;100.00;93939.91;5076363;28;20550;-81
2021/12/08 01:28:36;;;;;;;5.97;4.65;;;;;;;1.35;100.00;93947.56;5075608;28;20929;-81
2021/12/08 01:31:05;;;;;;;8.73;4.85;;;;;;;1.34;100.00;93936.38;5075968;28;20205;-81
2021/12/08 01:33:34;;;;;;;6.70;5.15;;;;;;;1.35;100.00;93943.22;5075594;28;20236;-81
2021/12/08 01:36:02;;;;;;;6.60;5.18;;;;;;;1.32;100.00;93946.00;5075416;28;20224;-81
2021/12/08 01:38:29;;;;;;;7.75;5.30;;;;;;;1.34;100.00;93938.13;5075724;28;20213;-81
2021/12/08 01:40:58;;;;;;;6.72;5.45;;;;;;;1.30;100.00;93945.25;5075576;28;20277;-81
2021/12/08 01:43:27;;;;;;;6.47;4.68;;;;;;;1.21;100.00;93949.28;5075312;28;20192;-81
2021/12/08 01:46:00;;;;;;;7.32;6.00;;;;;;;1.19;100.00;93958.88;5075442;28;20202;-81
2021/12/08 01:51:49;;;;;;;9.57;6.70;;;;;;;1.23;100.00;93955.16;5073937;28;20663;-81
2021/12/08 01:54:17;;;;;;;9.80;7.35;;;;;;;1.17;100.00;93959.91;5075187;28;20277;-81
2021/12/08 01:56:45;;;;;;;5.93;5.33;;;;;;;1.23;100.00;93962.91;5074257;28;20226;-81
2021/12/08 01:59:13;;;;;;;9.75;7.47;;;;;;;1.22;100.00;93965.59;5039765;28;20923;-81
2021/12/08 02:01:42;;;;;;;13.43;8.57;;;;;;;1.20;100.00;93964.88;5075467;28;20190;-81
2021/12/08 02:04:10;;;;;;;12.00;8.13;;;;;;;1.22;100.00;93974.19;5075014;28;20206;-81
2021/12/08 02:06:39;;;;;;;13.40;8.35;;;;;;;1.29;100.00;93971.22;5074976;28;20191;-81
2021/12/08 02:09:09;;;;;;;18.60;10.63;;;;;;;1.31;100.00;93965.00;5074838;28;20237;-81
2021/12/08 02:11:37;;;;;;;22.55;11.80;;;;;;;1.35;100.00;93973.41;5074870;28;20190;-81
2021/12/08 02:14:05;;;;;;;19.40;10.52;;;;;;;1.29;100.00;93973.78;5074965;28;20198;-82
2021/12/08 02:16:33;;;;;;;20.52;11.25;;;;;;;1.32;100.00;93976.19;5074654;28;20234;-81
2021/12/08 02:25:46;;;;;;;23.42;12.25;;;;;;;1.27;100.00;93991.16;5072653;28;20197;-81
2021/12/08 02:28:13;;;;;;;25.63;13.63;;;;;;;1.31;100.00;93983.09;5038590;28;20292;-81
2021/12/08 02:30:46;;;;;;;22.90;12.00;;;;;;;1.28;100.00;93985.88;5074135;28;20567;-81
2021/12/08 02:47:11;;;;;;;14.57;10.25;;;;;;;1.19;100.00;94004.56;5074643;28;20198;-81
2021/12/08 02:49:39;;;;;;;13.43;10.57;;;;;;;1.30;100.00;93998.69;5074230;28;20206;-81
2021/12/08 02:52:07;;;;;;;16.45;10.32;;;;;;;1.29;100.00;93990.13;5073974;28;20200;-81
2021/12/08 02:54:37;;;;;;;14.27;9.07;;;;;;;1.28;100.00;94006.56;5073936;28;20194;-81
2021/12/08 02:57:06;;;;;;;11.30;8.37;;;;;;;1.37;100.00;93994.78;5038791;28;20608;-81
2021/12/08 02:59:33;;;;;;;11.80;8.67;;;;;;;1.34;100.00;94002.75;5039260;28;20444;-81
2021/12/08 03:02:01;;;;;;;11.18;9.10;;;;;;;1.27;100.00;94006.66;5073813;28;20431;-81
2021/12/08 03:04:28;;;;;;;19.10;11.75;;;;;;;1.25;100.00;93999.00;5073787;28;20556;-81
2021/12/08 03:10:20;;;;;;;14.57;9.98;;;;;;;1.22;100.00;94005.19;5072768;28;20197;-81
2021/12/08 03:12:49;;;;;;;17.33;11.85;;;;;;;1.13;100.00;94021.25;5074030;28;20186;-81
2021/12/08 03:15:17;;;;;;;17.65;12.35;;;;;;;1.16;100.00;94015.91;5073662;28;20201;-81
2021/12/08 03:17:45;;;;;;;13.93;10.30;;;;;;;1.17;100.00;94011.56;5038630;28;20232;-81
2021/12/08 03:20:15;;;;;;;17.55;12.23;;;;;;;1.23;100.00;94011.19;5073906;28;20209;-81
2021/12/08 03:22:45;;;;;;;19.10;12.23;;;;;;;1.28;100.00;94016.06;5039369;28;20202;-81
2021/12/08 03:25:16;;;;;;;24.63;13.88;;;;;;;1.30;100.00;94012.44;5073821;28;20895;-81
2021/12/08 03:27:49;;;;;;;32.25;17.23;;;;;;;1.25;100.00;94011.91;5073868;28;20186;-81
2021/12/08 03:30:22;;;;;;;19.70;13.20;;;;;;;1.32;100.00;94020.09;5073904;28;20782;-81
2021/12/08 03:32:55;;;;;;;18.63;11.73;;;;;;;1.33;100.00;94026.94;5073254;28;20587;-81
2021/12/08 03:35:23;;;;;;;19.92;12.32;;;;;;;1.30;100.00;94022.78;5073216;28;20700;-80
2021/12/08 03:37:50;;;;;;;19.30;12.68;;;;;;;1.35;100.00;94025.09;5073217;28;20221;-82
2021/12/08 03:40:19;;;;;;;23.13;14.52;;;;;;;1.31;100.00;94028.78;5073275;28;20205;-81
2021/12/08 03:42:51;;;;;;;20.88;13.77;;;;;;;1.31;100.00;94039.13;5073498;28;20209;-81
2021/12/08 03:45:23;;;;;;;21.10;14.55;;;;;;;1.31;100.00;94044.28;5073194;28;20199;-81
2021/12/08 03:47:59;;;;;;;21.92;12.90;;;;;;;1.33;100.00;94048.44;5073595;28;20196;-81
2021/12/08 03:50:27;;;;;;;21.65;13.00;;;;;;;1.33;100.00;94045.03;5073425;28;20207;-82
2021/12/08 03:52:54;;;;;;;23.02;12.15;;;;;;;1.37;100.00;94054.25;5038473;28;20198;-81
2021/12/08 03:55:21;;;;;;;19.25;13.43;;;;;;;1.35;100.00;94045.75;5073385;28;20201;-81
2021/12/08 03:57:48;;;;;;;22.13;12.05;;;;;;;1.40;100.00;94064.38;5073443;28;20347;-81
2021/12/08 04:00:19;;;;;;;24.58;13.23;;;;;;;1.39;100.00;94070.47;5073112;28;20234;-82
2021/12/08 04:02:48;;;;;;;18.60;12.50;;;;;;;1.42;100.00;94065.13;5073471;28;20299;-81
2021/12/08 04:05:19;;;;;;;21.55;11.60;;;;;;;1.40;100.00;94069.56;5073006;28;20507;-81
2021/12/08 04:07:46;;;;;;;21.70;12.95;;;;;;;1.47;100.00;94078.59;5073268;28;20195;-81
2021/12/08 04:20:29;;;;;;;23.80;15.15;;;;;;;1.36;100.00;94073.25;5071888;28;20664;-81
2021/12/08 04:22:58;;;;;;;20.33;13.02;;;;;;;1.40;100.00;94074.72;5073194;28;20193;-81
2021/12/08 04:25:28;;;;;;;19.55;12.05;;;;;;;1.41;100.00;94077.22;5072559;28;20206;-82
2021/12/08 04:27:58;;;;;;;21.05;13.30;;;;;;;1.41;100.00;94078.97;5073104;28;20190;-82
2021/12/08 04:30:29;;;;;;;19.60;13.38;;;;;;;1.41;100.00;94076.38;5073098;28;20198;-82
2021/12/08 04:32:56;;;;;;;18.90;13.52;;;;;;;1.42;100.00;94084.03;5073032;28;20197;-81
2021/12/08 04:35:25;;;;;;;20.58;13.70;;;;;;;1.39;100.00;94079.06;5037486;28;20198;-81
2021/12/08 04:37:56;;;;;;;19.65;12.82;;;;;;;1.39;100.00;94088.56;5072834;28;20232;-81
2021/12/08 04:40:33;;;;;;;25.05;15.80;;;;;;;1.36;100.00;94084.41;5072477;28;20585;-81
2021/12/08 04:43:14;;;;;;;65.20;31.80;;;;;;;1.36;100.00;94096.50;5073094;28;20193;-81
2021/12/08 04:45:52;;;;;;;26.35;14.20;;;;;;;1.33;100.00;94099.28;5073615;28;20194;-81
2021/12/08 04:48:33;;;;;;;23.65;14.90;;;;;;;1.35;100.00;94100.84;5044137;28;20200;-82
2021/12/08 04:51:34;;;;;;;28.13;16.73;;;;;;;1.45;100.00;94108.88;5076693;28;20193;-82
2021/12/08 05:00:16;;;;;;;28.45;16.58;;;;;;;1.46;100.00;94107.97;5076196;28;20239;-81
2021/12/08 05:02:52;;;;;;;22.80;14.77;;;;;;;1.52;100.00;94121.34;5076246;28;20213;-82
2021/12/08 05:05:26;;;;;;;24.40;15.05;;;;;;;1.50;100.00;94122.34;5076639;28;20547;-82
2021/12/08 05:07:58;;;;;;;24.35;14.57;;;;;;;1.49;100.00;94125.88;5076397;28;20213;-78
2021/12/08 05:10:30;;;;;;;23.13;15.43;;;;;;;1.56;100.00;94127.13;5076187;28;20211;-81
2021/12/08 05:12:59;;;;;;;27.08;15.88;;;;;;;1.47;100.00;94133.72;5075871;28;20202;-81
2021/12/08 05:15:29;;;;;;;28.35;18.45;;;;;;;1.57;100.00;94133.13;5074943;28;20445;-82
2021/12/08 05:18:00;;;;;;;23.30;16.15;;;;;;;1.52;100.00;94126.50;5076025;28;20225;-79
2021/12/08 05:20:33;;;;;;;24.75;17.00;;;;;;;1.59;100.00;94141.63;5076002;28;20198;-80
2021/12/08 05:23:07;;;;;;;24.45;15.15;;;;;;;1.61;100.00;94135.44;5075861;28;20206;-80
2021/12/08 05:25:38;;;;;;;22.27;15.18;;;;;;;1.58;100.00;94142.56;5075557;28;20197;-79
2021/12/08 05:28:09;;;;;;;23.27;14.32;;;;;;;1.54;100.00;94144.50;5075706;28;20230;-79
2021/12/08 05:30:39;;;;;;;24.63;15.30;;;;;;;1.44;100.00;94139.06;5073858;28;20206;-79
2021/12/08 05:33:07;;;;;;;24.48;13.63;;;;;;;1.44;100.00;94140.81;5076074;28;20186;-82
2021/12/08 05:35:35;;;;;;;32.13;16.02;;;;;;;1.42;100.00;94147.81;5075564;28;20198;-83
2021/12/08 05:38:04;;;;;;;24.75;15.85;;;;;;;1.45;100.00;94142.50;5075717;28;20688;-84
2021/12/08 05:40:36;;;;;;;26.00;15.95;;;;;;;1.51;100.00;94147.28;5075430;28;20189;-84
2021/12/08 05:43:04;;;;;;;29.17;18.00;;;;;;;1.33;100.00;94140.63;5073980;28;20285;-83
2021/12/08 05:45:32;;;;;;;31.17;16.90;;;;;;;1.35;100.00;94144.78;5076006;28;21529;-84
2021/12/08 05:47:59;;;;;;;29.75;15.10;;;;;;;1.31;100.00;94147.66;5075933;28;20556;-86
2021/12/08 05:50:34;;;;;;;26.37;17.33;;;;;;;1.28;100.00;94159.03;5075895;28;20228;-84
2021/12/08 05:53:03;;;;;;;30.53;14.80;;;;;;;1.27;100.00;94162.53;5076029;28;20420;-85
2021/12/08 05:55:31;;;;;;;25.98;15.95;;;;;;;1.19;100.00;94165.56;5075469;28;20451;-84
2021/12/08 05:57:58;;;;;;;30.27;16.75;;;;;;;1.16;100.00;94157.19;5075263;28;20585;-83
2021/12/08 06:00:30;;;;;;;30.48;17.60;;;;;;;1.19;100.00;94169.91;5076196;28;20242;-86
2021/12/08 06:02:57;;;;;;;25.00;16.67;;;;;;;1.21;100.00;94171.47;5076640;28;20209;-86
2021/12/08 06:05:26;;;;;;;30.00;18.00;;;;;;;1.28;100.00;94178.84;5075977;28;20210;-83
2021/12/08 06:07:54;;;;;;;32.53;18.48;;;;;;;1.31;100.00;94181.25;5075522;28;20186;-83
2021/12/08 06:10:27;;;;;;;36.75;18.63;;;;;;;1.28;100.00;94184.03;5075328;28;20194;-83
2021/12/08 06:12:54;;;;;;;27.83;16.85;;;;;;;1.18;100.00;94188.94;5075331;28;20294;-83
2021/12/08 06:18:43;;;;;;;26.83;19.35;;;;;;;1.27;100.00;94197.88;5074267;28;20708;-83
2021/12/08 06:21:17;;;;;;;30.75;18.80;;;;;;;1.26;100.00;94206.56;5075215;28;20641;-83
2021/12/08 06:23:44;;;;;;;39.40;21.08;;;;;;;1.32;100.00;94204.41;5056209;28;20196;-83
2021/12/08 06:26:15;;;;;;;33.85;18.48;;;;;;;1.28;100.00;94213.28;5074816;28;20200;-83
2021/12/08 06:28:42;;;;;;;36.20;21.17;;;;;;;1.33;100.00;94223.34;5075009;28;20523;-83
2021/12/08 06:31:11;;;;;;;31.45;19.45;;;;;;;1.46;100.00;94227.69;5074549;28;20425;-83
2021/12/08 06:33:38;;;;;;;35.88;19.33;;;;;;;1.50;100.00;94224.00;5074635;28;20208;-83
2021/12/08 06:36:08;;;;;;;33.55;19.20;;;;;;;1.52;100.00;94223.91;5074511;28;20193;-83
2021/12/08 06:38:35;;;;;;;22.80;14.95;;;;;;;1.51;100.00;94222.25;5074249;28;20221;-84
2021/12/08 06:41:06;;;;;;;34.58;19.50;;;;;;;1.47;100.00;94220.78;5039561;28;20190;-84
2021/12/08 06:46:59;;;;;;;28.52;16.73;;;;;;;1.36;100.00;94218.00;5073741;28;20193;-84
2021/12/08 06:49:27;;;;;;;28.08;15.43;;;;;;;1.36;100.00;94223.16;5056060;28;20217;-84
2021/12/08 06:51:58;;;;;;;25.83;13.10;;;;;;;1.33;100.00;94218.19;5074483;28;20186;-85
2021/12/08 06:54:28;;;;;;;24.70;16.17;;;;;;;1.35;100.00;94224.06;5074459;28;20558;-86
2021/12/08 06:56:59;;;;;;;24.63;14.85;;;;;;;1.36;100.00;94220.56;5074515;28;20456;-84
2021/12/08 06:59:33;;;;;;;26.67;15.50;;;;;;;1.40;100.00;94228.03;5074183;28;20225;-85
2021/12/08 07:02:11;;;;;;;21.52;14.43;;;;;;;1.39;100.00;94228.97;5074383;28;20274;-85
2021/12/08 07:04:54;;;;;;;29.27;17.37;;;;;;;1.33;100.00;94225.94;5073316;28;20198;-85
2021/12/08 07:07:24;;;;;;;29.53;19.70;;;;;;;1.35;100.00;94216.31;5054074;28;20430;-84
2021/12/08 07:09:54;;;;;;;26.00;17.03;;;;;;;1.42;100.00;94227.94;5072272;28;20434;-81
2021/12/08 07:12:23;;;;;;;36.88;17.30;;;;;;;1.52;100.00;94229.09;5074056;28;20782;-81
2021/12/08 07:14:54;;;;;;;29.20;16.52;;;;;;;1.43;100.00;94230.44;5073868;28;20191;-80
2021/12/08 07:17:27;;;;;;;25.98;13.52;;;;;;;1.36;99.77;94231.75;5073846;28;20233;-81
2021/12/08 07:20:14;;;;;;;30.88;15.75;;;;;;;1.39;100.00;94235.88;5073914;28;20198;-81
2021/12/08 07:22:46;;;;;;;40.30;18.95;;;;;;;1.41;100.00;94236.63;5073632;28;20201;-80
2021/12/08 07:25:15;;;;;;;28.38;16.80;;;;;;;1.40;100.00;94250.47;5073801;28;20190;-80
2021/12/08 07:27:42;;;;;;;29.20;20.15;;;;;;;1.39;100.00;94248.81;5073469;28;20190;-81
2021/12/08 07:30:14;;;;;;;28.13;18.60;;;;;;;1.40;100.00;94250.47;5073341;28;20198;-82
2021/12/08 07:32:42;;;;;;;25.83;15.63;;;;;;;1.27;100.00;94246.97;5073708;28;20517;-82
2021/12/08 07:35:14;;;;;;;28.77;15.20;;;;;;;1.30;100.00;94263.13;5073190;28;20421;-83
2021/12/08 07:37:41;;;;;;;22.27;13.95;;;;;;;1.33;100.00;94254.34;5071922;28;20224;-82
2021/12/08 07:40:12;;;;;;;33.95;18.52;;;;;;;1.41;100.00;94252.13;5071268;28;20989;-80
2021/12/08 07:42:44;;;;;;;30.10;18.80;;;;;;;1.51;100.00;94261.03;5071895;28;20202;-79
2021/12/08 07:45:16;;;;;;;31.60;16.50;;;;;;;1.54;100.00;94260.84;5072285;28;20202;-81
2021/12/08 07:47:45;;;;;;;41.73;22.87;;;;;;;1.58;100.00;94259.72;5073494;28;20516;-79
2021/12/08 07:50:18;;;;;;;24.70;15.13;;;;;;;1.65;100.00;94273.13;5073507;28;20432;-80
2021/12/08 07:52:48;;;;;;;26.60;15.10;;;;;;;1.64;99.03;94269.69;5073517;28;20441;-80
2021/12/08 07:55:18;;;;;;;30.95;16.30;;;;;;;1.57;98.70;94262.41;5073211;28;20635;-79
2021/12/08 07:57:45;;;;;;;50.13;21.45;;;;;;;1.59;99.15;94274.31;5071886;28;20221;-81
2021/12/08 08:00:17;;;;;;;23.80;16.47;;;;;;;1.60;98.98;94265.63;5072259;28;20848;-80
2021/12/08 08:02:46;;;;;;;55.23;27.00;;;;;;;1.63;98.18;94275.78;5073166;28;20452;-80
2021/12/08 08:05:16;;;;;;;34.90;18.20;;;;;;;1.61;98.23;94272.47;5073507;28;20439;-80
2021/12/08 08:07:44;;;;;;;29.85;17.15;;;;;;;1.57;98.11;94275.34;5073271;28;20467;-79
2021/12/08 08:10:15;;;;;;;30.80;16.30;;;;;;;1.60;98.62;94283.75;5073038;28;20660;-80
2021/12/08 08:12:44;;;;;;;25.10;16.13;;;;;;;1.62;98.20;94284.47;5072818;28;20435;-80
2021/12/08 08:15:16;;;;;;;19.88;14.30;;;;;;;1.63;98.73;94277.53;5073192;28;20190;-80
2021/12/08 08:17:46;;;;;;;20.92;13.82;;;;;;;1.62;98.23;94287.06;5072745;28;20214;-79
2021/12/08 08:20:17;;;;;;;20.15;13.85;;;;;;;1.64;98.34;94284.38;5074733;28;20645;-80
2021/12/08 08:22:50;;;;;;;29.30;16.90;;;;;;;1.63;98.45;94298.22;5076861;28;20577;-81
2021/12/08 08:25:21;;;;;;;31.83;20.00;;;;;;;1.74;99.01;94288.94;5076044;28;20446;-81
2021/12/08 08:27:48;;;;;;;35.40;19.00;;;;;;;1.95;97.73;94299.72;5076710;28;20944;-81
2021/12/08 08:30:21;;;;;;;22.27;14.53;;;;;;;2.03;97.52;94307.84;5042048;28;20205;-81
2021/12/08 08:32:52;;;;;;;24.83;14.80;;;;;;;2.14;97.23;94302.00;5077200;28;20436;-81
2021/12/08 08:35:22;;;;;;;24.37;14.10;;;;;;;2.24;96.06;94308.28;5076972;28;20848;-81
2021/12/08 08:44:37;;;;;;;21.80;14.80;;;;;;;2.15;96.13;94298.50;5076363;28;20231;-82
2021/12/08 08:47:10;;;;;;;28.13;16.43;;;;;;;2.13;95.53;94303.78;5075635;28;20784;-81
2021/12/08 08:49:39;;;;;;;27.97;15.80;;;;;;;2.08;95.91;94302.41;5076616;28;20420;-80
2021/12/08 08:52:11;;;;;;;43.20;18.70;;;;;;;2.18;96.08;94298.31;5076472;28;20433;-81
2021/12/08 08:54:41;;;;;;;28.10;14.00;;;;;;;2.19;95.05;94289.63;5076621;28;20432;-82
2021/12/08 09:15:20;;;;;;;22.70;14.40;;;;;;;2.65;93.57;94297.09;5073603;28;21011;-82
2021/12/08 09:17:50;;;;;;;28.63;16.70;;;;;;;2.65;92.90;94284.16;5075743;28;20520;-81
2021/12/08 09:20:26;;;;;;;27.42;18.80;;;;;;;2.83;93.11;94277.78;5040558;28;20433;-81
2021/12/08 09:22:58;;;;;;;30.03;17.97;;;;;;;2.78;91.60;94274.66;5075809;28;20435;-80
2021/12/08 09:25:30;;;;;;;33.93;19.23;;;;;;;2.85;91.53;94269.91;5075996;28;20440;-80
2021/12/08 09:28:03;;;;;;;29.83;18.63;;;;;;;2.82;91.84;94260.56;5075604;28;20527;-81
2021/12/08 09:30:38;;;;;;;27.77;17.07;;;;;;;2.79;91.51;94258.19;5075905;28;20440;-81
2021/12/08 09:40:11;;;;;;;35.17;24.57;;;;;;;2.57;91.88;94268.25;5033651;28;20899;-83
2021/12/08 09:42:41;;;;;;;45.53;25.10;;;;;;;2.48;93.54;94261.91;5033658;28;20442;-82
2021/12/08 09:45:12;;;;;;;36.63;20.80;;;;;;;2.55;94.18;94270.09;5033470;28;20524;-81
2021/12/08 09:47:41;;;;;;;32.40;19.20;;;;;;;2.64;93.71;94264.38;4985187;28;20446;-81
2021/12/08 09:50:10;;;;;;;29.80;18.80;;;;;;;2.79;93.03;94263.38;5033245;28;20449;-76
2021/12/08 09:52:38;;;;;;;28.27;16.87;;;;;;;4.06;100.00;94249.66;5033312;28;20430;-77
2021/12/08 09:55:09;;;;;;;25.07;13.70;;;;;;;8.17;100.00;94253.22;5033186;28;20529;-77
2021/12/08 09:57:36;;;;;;;28.83;18.30;;;;;;;8.74;90.73;94267.47;4984976;28;20456;-80
2021/12/08 10:00:05;;;;;;;28.80;17.97;;;;;;;8.27;79.09;94260.13;5045643;28;20440;-79
2021/12/08 10:02:34;;;;;;;24.07;16.47;;;;;;;7.46;71.35;94266.94;5075421;28;20448;-80
2021/12/08 10:05:06;;;;;;;27.73;19.40;;;;;;;7.10;72.26;94262.16;5075286;28;20438;-79
2021/12/08 10:07:33;;;;;;;25.40;18.70;;;;;;;6.73;73.23;94272.94;5075484;28;20525;-81
2021/12/08 10:10:01;;;;;;;26.43;16.47;;;;;;;6.45;74.36;94268.25;5075324;28;20429;-79
2021/12/08 10:19:32;;;;;;;54.27;23.57;;;;;;;5.46;77.92;94275.84;5074825;28;20456;-79
2021/12/08 10:22:00;;;;;;;50.13;27.50;;;;;;;5.03;79.24;94280.78;5075323;28;20437;-80
2021/12/08 10:24:29;;;;;;;40.50;20.67;;;;;;;4.74;81.37;94268.13;5075024;28;20444;-80
2021/12/08 10:27:06;;;;;;;27.93;18.73;;;;;;;4.63;82.60;94266.31;5074611;28;20791;-79
2021/12/08 10:29:34;;;;;;;34.23;17.27;;;;;;;4.67;84.11;94256.53;5075010;28;20448;-79
2021/12/08 10:32:03;;;;;;;33.43;19.57;;;;;;;4.62;82.82;94250.81;5074809;28;20457;-80
2021/12/08 10:34:41;;;;;;;29.90;19.60;;;;;;;4.66;83.50;94247.06;5074834;28;20432;-79
2021/12/08 10:37:17;;;;;;;21.63;15.37;;;;;;;4.29;82.41;94252.28;5074562;28;20470;-80
2021/12/08 10:39:46;;;;;;;29.77;19.57;;;;;;;4.39;84.75;94251.66;5074712;28;20525;-80
2021/12/08 10:42:18;;;;;;;31.00;20.30;;;;;;;4.47;84.31;94255.34;5039478;28;20448;-78
2021/12/08 10:44:53;;;;;;;25.17;18.20;;;;;;;4.38;82.75;94247.38;5074685;28;20425;-79
2021/12/08 10:47:41;;;;;;;27.57;17.37;;;;;;;4.51;84.21;94255.94;5051886;28;20465;-79
2021/12/08 10:55:50;;;;;;;28.03;19.67;;;;;;;4.73;83.75;94242.25;5051876;28;20463;-79
2021/12/08 10:58:23;;;;;;;30.90;21.23;;;;;;;4.85;84.07;94244.78;5002202;28;20583;-79
2021/12/08 11:00:52;;;;;;;22.67;13.87;;;;;;;4.84;82.74;94237.94;5051826;28;20944;-79
2021/12/08 11:03:19;;;;;;;35.00;20.00;;;;;;;4.88;81.75;94241.13;5002550;28;20947;-79
2021/12/08 11:05:52;;;;;;;37.00;20.90;;;;;;;4.85;81.88;94244.78;5062365;28;20440;-78
2021/12/08 11:08:26;;;;;;;23.50;17.30;;;;;;;4.60;82.42;94234.50;5073594;28;20942;-80
2021/12/08 11:10:57;;;;;;;50.53;24.23;;;;;;;4.30;83.11;94247.91;5073279;28;20449;-77
2021/12/08 11:13:26;;;;;;;46.93;29.27;;;;;;;4.25;84.11;94240.44;5072758;28;20451;-82
2021/12/08 11:16:07;;;;;;;51.10;28.63;;;;;;;4.29;85.23;94246.25;5072494;28;20447;-80
2021/12/08 11:18:39;;;;;;;68.43;36.50;;;;;;;4.23;84.35;94249.28;5073920;28;20487;-80
2021/12/08 11:21:14;;;;;;;55.23;28.60;;;;;;;4.30;85.33;94253.94;5073770;28;20990;-80
2021/12/08 11:23:44;;;;;;;47.63;25.23;;;;;;;4.18;84.82;94254.81;5074037;28;20443;-80
2021/12/08 11:26:18;;;;;;;26.17;17.07;;;;;;;4.21;84.73;94254.59;5074031;28;20460;-80
2021/12/08 11:28:47;;;;;;;35.53;19.90;;;;;;;4.12;85.07;94251.81;5073512;28;20455;-79
2021/12/08 11:31:16;;;;;;;18.80;13.13;;;;;;;4.05;85.37;94254.03;5073682;28;20452;-80
2021/12/08 11:33:49;;;;;;;26.00;17.17;;;;;;;3.95;85.69;94261.59;5073448;28;20425;-80
2021/12/08 11:36:18;;;;;;;26.33;17.60;;;;;;;4.01;86.36;94252.53;5073642;28;20433;-79
2021/12/08 11:38:48;;;;;;;32.53;19.23;;;;;;;3.93;86.31;94252.25;5054847;28;20959;-81
2021/12/08 11:44:39;;;;;;;23.27;14.70;;;;;;;4.03;85.46;94248.91;5072373;28;20455;-80
2021/12/08 11:47:08;;;;;;;23.13;15.70;;;;;;;4.13;86.09;94261.25;5073598;28;20919;-79
2021/12/08 11:49:41;;;;;;;32.40;18.87;;;;;;;4.25;86.80;94269.00;5073465;28;20440;-80
2021/12/08 11:52:13;;;;;;;28.30;22.00;;;;;;;4.39;85.72;94264.63;5073287;28;20444;-80
2021/12/08 11:54:48;;;;;;;20.53;14.53;;;;;;;4.41;85.33;94260.97;5038956;28;20452;-80
2021/12/08 11:57:18;;;;;;;21.80;15.07;;;;;;;4.31;84.59;94263.38;5073491;28;20494;-79
2021/12/08 11:59:48;;;;;;;19.47;15.17;;;;;;;4.42;84.74;94272.19;5073487;28;20475;-80
2021/12/08 12:12:21;;;;;;;49.43;24.93;;;;;;;4.33;84.51;94276.25;5071900;28;20428;-86
2021/12/08 12:14:49;;;;;;;21.57;15.47;;;;;;;4.23;84.62;94276.09;5073220;28;20448;-81
2021/12/08 12:17:16;;;;;;;22.67;14.97;;;;;;;4.15;83.93;94275.78;5072596;28;20447;-81
2021/12/08 12:19:51;;;;;;;33.17;20.17;;;;;;;3.91;84.46;94275.72;5072791;28;20974;-81
2021/12/08 12:22:41;;;;;;;38.00;21.90;;;;;;;3.71;85.35;94287.44;5072892;28;20444;-81
2021/12/08 12:25:22;;;;;;;42.10;21.30;;;;;;;3.70;86.26;94290.97;5072837;28;20447;-81
2021/12/08 12:28:02;;;;;;;38.70;20.00;;;;;;;3.65;86.66;94289.63;5073071;28;20511;-81
2021/12/08 12:30:38;;;;;;;36.83;22.03;;;;;;;3.50;86.92;94291.50;5072831;28;20436;-81
2021/12/08 12:33:17;;;;;;;44.20;24.97;;;;;;;3.48;87.42;94290.78;5072678;28;20448;-82
2021/12/08 12:35:50;;;;;;;40.80;23.47;;;;;;;3.53;89.18;94288.72;5072752;28;20804;-81
2021/12/08 12:38:17;;;;;;;29.90;20.40;;;;;;;3.62;89.37;94293.28;5072602;28;20522;-81
2021/12/08 12:40:47;;;;;;;26.40;19.47;;;;;;;3.80;89.20;94292.97;5072656;28;20527;-81
2021/12/08 12:43:26;;;;;;;28.97;18.10;;;;;;;3.81;88.51;94289.44;5072546;28;20444;-81
2021/12/08 12:46:03;;;;;;;35.80;18.67;;;;;;;3.89;88.04;94293.16;5072982;28;20535;-81
2021/12/08 12:48:31;;;;;;;38.00;19.93;;;;;;;3.97;86.58;94290.03;5073101;28;20536;-80
2021/12/08 12:51:03;;;;;;;40.03;21.93;;;;;;;4.09;87.38;94291.81;5073047;28;20436;-81
2021/12/08 13:00:25;;;;;;;43.30;26.93;;;;;;;4.03;86.10;94302.59;5009427;28;20461;-81
2021/12/08 13:02:52;;;;;;;27.73;19.53;;;;;;;3.99;87.54;94301.97;5009477;28;20518;-81
2021/12/08 13:05:22;;;;;;;37.83;25.03;;;;;;;3.90;87.22;94297.41;5009536;28;20459;-81
2021/12/08 13:07:58;;;;;;;31.13;20.70;;;;;;;3.78;87.77;94297.44;5011568;28;21055;-81
2021/12/08 13:10:35;;;;;;;49.13;25.33;;;;;;;3.70;87.28;94301.34;5012762;28;20450;-81
2021/12/08 13:13:10;;;;;;;41.60;24.03;;;;;;;3.72;87.91;94304.69;4996063;28;20929;-82
2021/12/08 13:15:42;;;;;;;35.23;21.90;;;;;;;3.62;88.11;94308.00;5012625;28;20518;-81
2021/12/08 13:18:11;;;;;;;56.30;27.97;;;;;;;3.67;88.61;94309.34;5012604;28;20493;-81
2021/12/08 13:20:41;;;;;;;65.00;35.80;;;;;;;3.58;88.12;94307.38;4963368;28;20485;-81
2021/12/08 13:23:09;;;;;;;68.63;29.37;;;;;;;3.48;89.32;94308.09;5012713;28;20443;-81
2021/12/08 13:25:48;;;;;;;51.00;28.33;;;;;;;3.47;89.63;94303.81;5012482;28;20458;-81
2021/12/08 13:28:20;;;;;;;59.67;30.03;;;;;;;3.45;88.91;94316.91;5012736;28;20937;-81
2021/12/08 13:30:52;;;;;;;34.80;23.13;;;;;;;3.32;89.31;94319.47;5012419;28;20451;-81
2021/12/08 13:33:25;;;;;;;25.20;17.90;;;;;;;3.26;88.66;94321.66;5038116;28;20543;-81
2021/12/08 13:35:54;;;;;;;41.83;25.37;;;;;;;3.25;89.92;94314.81;5074647;28;20445;-81
2021/12/08 13:38:22;;;;;;;37.53;23.63;;;;;;;3.34;90.54;94325.41;5074421;28;20515;-81
2021/12/08 13:40:50;;;;;;;41.00;25.67;;;;;;;3.33;89.32;94328.09;5073943;28;20545;-81
2021/12/08 13:43:39;;;;;;;37.53;25.27;;;;;;;3.30;89.93;94325.69;5074746;28;20447;-81
2021/12/08 13:46:10;;;;;;;40.67;22.30;;;;;;;3.27;90.42;94331.09;5074241;28;20451;-81